sensor_id;sensor_type;location;lat;lon;timestamp;temperature;humidity
21580;DHT22;10951;59.656;9.666;2024-01-25T00:01:53;0.10;99.90
21580;DHT22;10951;59.656;9.666;2024-01-25T00:04:21;0.10;99.90
21580;DHT22;10951;59.656;9.666;2024-01-25T00:06:48;0.10;99.90
21580;DHT22;10951;59.656;9.666;2024-01-25T00:09:15;0.10;99.90
21580;DHT22;10951;59.656;9.666;2024-01-25T00:11:43;0.00;99.90
21580;DHT22;10951;59.656;9.666;2024-01-25T00:14:10;0.10;99.90
21580;DHT22;10951;59.656;9.666;2024-01-25T00:16:41;0.20;99.90
21580;DHT22;10951;59.656;9.666;2024-01-25T00:19:08;0.20;99.90
21580;DHT22;10951;59.656;9.666;2024-01-25T00:21:41;0.30;99.90
21580;DHT22;10951;59.656;9.666;2024-01-25T00:24:11;0.20;99.90
21580;DHT22;10951;59.656;9.666;2024-01-25T00:26:38;0.10;99.90
21580;DHT22;10951;59.656;9.666;2024-01-25T00:29:06;0.20;99.90
21580;DHT22;10951;59.656;9.666;2024-01-25T00:31:33;0.10;99.90
21580;DHT22;10951;59.656;9.666;2024-01-25T00:34:01;0.20;99.90
21580;DHT22;10951;59.656;9.666;2024-01-25T00:36:29;0.10;99.90
21580;DHT22;10951;59.656;9.666;2024-01-25T00:38:56;0.10;99.90
21580;DHT22;10951;59.656;9.666;2024-01-25T00:41:23;0.20;99.90
21580;DHT22;10951;59.656;9.666;2024-01-25T00:43:51;0.30;99.90
21580;DHT22;10951;59.656;9.666;2024-01-25T00:46:18;0.30;99.90
21580;DHT22;10951;59.656;9.666;2024-01-25T00:48:45;0.40;99.90
21580;DHT22;10951;59.656;9.666;2024-01-25T00:51:21;0.50;99.90
21580;DHT22;10951;59.656;9.666;2024-01-25T00:53:48;0.50;99.90
21580;DHT22;10951;59.656;9.666;2024-01-25T00:56:16;0.60;99.90
21580;DHT22;10951;59.656;9.666;2024-01-25T00:58:43;0.70;99.90
21580;DHT22;10951;59.656;9.666;2024-01-25T01:01:10;0.70;99.90
21580;DHT22;10951;59.656;9.666;2024-01-25T01:03:38;0.70;99.90
21580;DHT22;10951;59.656;9.666;2024-01-25T01:06:06;0.80;99.90
21580;DHT22;10951;59.656;9.666;2024-01-25T01:08:33;0.90;99.90
21580;DHT22;10951;59.656;9.666;2024-01-25T01:11:00;0.90;99.90
21580;DHT22;10951;59.656;9.666;2024-01-25T01:13:27;0.90;99.90
21580;DHT22;10951;59.656;9.666;2024-01-25T01:15:54;0.90;99.90
21580;DHT22;10951;59.656;9.666;2024-01-25T01:18:21;0.90;99.90
21580;DHT22;10951;59.656;9.666;2024-01-25T01:20:48;0.90;99.90
21580;DHT22;10951;59.656;9.666;2024-01-25T01:23:16;0.90;99.90
21580;DHT22;10951;59.656;9.666;2024-01-25T01:25:43;0.90;99.90
21580;DHT22;10951;59.656;9.666;2024-01-25T01:28:09;0.90;99.90
21580;DHT22;10951;59.656;9.666;2024-01-25T01:30:37;1.10;99.90
21580;DHT22;10951;59.656;9.666;2024-01-25T01:33:08;1.30;99.90
21580;DHT22;10951;59.656;9.666;2024-01-25T01:35:36;1.40;99.90
21580;DHT22;10951;59.656;9.666;2024-01-25T01:38:03;1.50;99.90
21580;DHT22;10951;59.656;9.666;2024-01-25T01:40:31;1.60;99.90
21580;DHT22;10951;59.656;9.666;2024-01-25T01:43:01;1.70;99.90
21580;DHT22;10951;59.656;9.666;2024-01-25T01:45:29;1.70;99.90
21580;DHT22;10951;59.656;9.666;2024-01-25T01:47:56;1.70;99.90
21580;DHT22;10951;59.656;9.666;2024-01-25T01:50:24;1.60;99.90
21580;DHT22;10951;59.656;9.666;2024-01-25T01:52:51;1.60;99.90
21580;DHT22;10951;59.656;9.666;2024-01-25T01:55:19;1.50;99.90
21580;DHT22;10951;59.656;9.666;2024-01-25T01:57:46;1.50;99.90
21580;DHT22;10951;59.656;9.666;2024-01-25T02:00:15;1.60;99.90
21580;DHT22;10951;59.656;9.666;2024-01-25T02:02:43;1.70;99.90
21580;DHT22;10951;59.656;9.666;2024-01-25T02:05:11;1.90;99.90
21580;DHT22;10951;59.656;9.666;2024-01-25T02:07:40;2.00;99.90
21580;DHT22;10951;59.656;9.666;2024-01-25T02:10:08;2.10;99.90
21580;DHT22;10951;59.656;9.666;2024-01-25T02:12:36;2.20;99.90
21580;DHT22;10951;59.656;9.666;2024-01-25T02:15:04;2.40;99.90
21580;DHT22;10951;59.656;9.666;2024-01-25T02:17:31;2.50;99.90
21580;DHT22;10951;59.656;9.666;2024-01-25T02:19:58;2.50;99.90
21580;DHT22;10951;59.656;9.666;2024-01-25T02:22:26;2.60;99.90
21580;DHT22;10951;59.656;9.666;2024-01-25T02:24:53;2.60;99.90
21580;DHT22;10951;59.656;9.666;2024-01-25T02:27:20;2.60;99.90
21580;DHT22;10951;59.656;9.666;2024-01-25T02:29:47;2.50;99.90
21580;DHT22;10951;59.656;9.666;2024-01-25T02:32:14;2.60;99.90
21580;DHT22;10951;59.656;9.666;2024-01-25T02:34:41;2.70;99.90
21580;DHT22;10951;59.656;9.666;2024-01-25T02:37:08;2.70;99.90
21580;DHT22;10951;59.656;9.666;2024-01-25T02:39:38;2.80;99.40
21580;DHT22;10951;59.656;9.666;2024-01-25T02:42:05;2.90;99.90
21580;DHT22;10951;59.656;9.666;2024-01-25T02:44:32;2.90;99.50
21580;DHT22;10951;59.656;9.666;2024-01-25T02:46:59;3.00;99.30
21580;DHT22;10951;59.656;9.666;2024-01-25T02:49:28;3.00;98.60
21580;DHT22;10951;59.656;9.666;2024-01-25T02:51:55;3.10;98.40
21580;DHT22;10951;59.656;9.666;2024-01-25T02:54:22;3.10;98.50
21580;DHT22;10951;59.656;9.666;2024-01-25T02:56:49;3.10;98.20
21580;DHT22;10951;59.656;9.666;2024-01-25T02:59:16;3.10;98.30
21580;DHT22;10951;59.656;9.666;2024-01-25T03:01:43;3.10;98.10
21580;DHT22;10951;59.656;9.666;2024-01-25T03:04:11;3.10;97.80
21580;DHT22;10951;59.656;9.666;2024-01-25T03:06:38;3.10;98.20
21580;DHT22;10951;59.656;9.666;2024-01-25T03:09:06;3.10;98.30
21580;DHT22;10951;59.656;9.666;2024-01-25T03:11:33;3.10;97.60
21580;DHT22;10951;59.656;9.666;2024-01-25T03:14:00;3.00;98.00
21580;DHT22;10951;59.656;9.666;2024-01-25T03:16:27;3.00;98.30
21580;DHT22;10951;59.656;9.666;2024-01-25T03:18:54;3.00;97.70
21580;DHT22;10951;59.656;9.666;2024-01-25T03:21:21;3.00;97.60
21580;DHT22;10951;59.656;9.666;2024-01-25T03:23:49;3.00;97.10
21580;DHT22;10951;59.656;9.666;2024-01-25T03:26:16;3.00;97.10
21580;DHT22;10951;59.656;9.666;2024-01-25T03:28:43;3.10;96.50
21580;DHT22;10951;59.656;9.666;2024-01-25T03:31:10;3.10;96.30
21580;DHT22;10951;59.656;9.666;2024-01-25T03:33:37;3.20;96.80
21580;DHT22;10951;59.656;9.666;2024-01-25T03:36:05;3.20;96.40
21580;DHT22;10951;59.656;9.666;2024-01-25T03:38:32;3.20;96.70
21580;DHT22;10951;59.656;9.666;2024-01-25T03:40:59;3.10;96.00
21580;DHT22;10951;59.656;9.666;2024-01-25T03:43:26;3.10;96.50
21580;DHT22;10951;59.656;9.666;2024-01-25T03:46:08;3.00;96.90
21580;DHT22;10951;59.656;9.666;2024-01-25T03:48:35;3.00;96.80
21580;DHT22;10951;59.656;9.666;2024-01-25T03:51:02;3.00;97.10
21580;DHT22;10951;59.656;9.666;2024-01-25T03:53:29;3.00;96.50
21580;DHT22;10951;59.656;9.666;2024-01-25T03:55:56;3.00;96.50
21580;DHT22;10951;59.656;9.666;2024-01-25T03:58:23;2.80;97.20
21580;DHT22;10951;59.656;9.666;2024-01-25T04:00:50;2.60;97.70
21580;DHT22;10951;59.656;9.666;2024-01-25T04:03:17;2.50;97.70
21580;DHT22;10951;59.656;9.666;2024-01-25T04:05:44;2.50;97.80
21580;DHT22;10951;59.656;9.666;2024-01-25T04:08:11;2.40;98.00
21580;DHT22;10951;59.656;9.666;2024-01-25T04:10:38;2.40;97.70
21580;DHT22;10951;59.656;9.666;2024-01-25T04:13:05;2.40;98.30
21580;DHT22;10951;59.656;9.666;2024-01-25T04:15:34;2.30;98.70
21580;DHT22;10951;59.656;9.666;2024-01-25T04:18:01;2.30;98.30
21580;DHT22;10951;59.656;9.666;2024-01-25T04:20:29;2.30;98.00
21580;DHT22;10951;59.656;9.666;2024-01-25T04:22:58;2.20;98.60
21580;DHT22;10951;59.656;9.666;2024-01-25T04:25:25;2.20;97.60
21580;DHT22;10951;59.656;9.666;2024-01-25T04:27:53;2.20;98.00
21580;DHT22;10951;59.656;9.666;2024-01-25T04:30:20;2.20;98.00
21580;DHT22;10951;59.656;9.666;2024-01-25T04:32:47;2.00;98.40
21580;DHT22;10951;59.656;9.666;2024-01-25T04:35:14;1.90;99.00
21580;DHT22;10951;59.656;9.666;2024-01-25T04:37:41;1.80;99.10
21580;DHT22;10951;59.656;9.666;2024-01-25T04:40:08;1.70;99.50
21580;DHT22;10951;59.656;9.666;2024-01-25T04:42:35;1.60;99.90
21580;DHT22;10951;59.656;9.666;2024-01-25T04:45:02;1.50;99.90
21580;DHT22;10951;59.656;9.666;2024-01-25T04:47:29;1.40;99.90
21580;DHT22;10951;59.656;9.666;2024-01-25T04:49:56;1.30;99.90
21580;DHT22;10951;59.656;9.666;2024-01-25T04:52:23;1.30;99.90
21580;DHT22;10951;59.656;9.666;2024-01-25T04:54:51;1.20;99.90
21580;DHT22;10951;59.656;9.666;2024-01-25T04:57:18;1.20;99.90
21580;DHT22;10951;59.656;9.666;2024-01-25T04:59:45;1.20;99.90
21580;DHT22;10951;59.656;9.666;2024-01-25T05:02:12;1.10;99.90
21580;DHT22;10951;59.656;9.666;2024-01-25T05:04:40;1.00;99.90
21580;DHT22;10951;59.656;9.666;2024-01-25T05:07:11;1.00;99.90
21580;DHT22;10951;59.656;9.666;2024-01-25T05:09:39;1.10;99.90
21580;DHT22;10951;59.656;9.666;2024-01-25T05:12:06;1.10;99.90
21580;DHT22;10951;59.656;9.666;2024-01-25T05:14:33;1.10;99.90
21580;DHT22;10951;59.656;9.666;2024-01-25T05:17:00;1.10;99.90
21580;DHT22;10951;59.656;9.666;2024-01-25T05:19:27;1.10;99.90
21580;DHT22;10951;59.656;9.666;2024-01-25T05:21:54;1.00;99.90
21580;DHT22;10951;59.656;9.666;2024-01-25T05:24:21;1.00;99.90
21580;DHT22;10951;59.656;9.666;2024-01-25T05:26:48;1.00;99.90
21580;DHT22;10951;59.656;9.666;2024-01-25T05:29:14;0.90;99.90
21580;DHT22;10951;59.656;9.666;2024-01-25T05:31:43;0.80;99.90
21580;DHT22;10951;59.656;9.666;2024-01-25T05:34:10;0.80;99.90
21580;DHT22;10951;59.656;9.666;2024-01-25T05:36:38;0.80;99.90
21580;DHT22;10951;59.656;9.666;2024-01-25T05:39:05;0.80;99.90
21580;DHT22;10951;59.656;9.666;2024-01-25T05:41:33;0.80;99.90
21580;DHT22;10951;59.656;9.666;2024-01-25T05:44:00;0.80;99.90
21580;DHT22;10951;59.656;9.666;2024-01-25T05:46:27;0.80;99.90
21580;DHT22;10951;59.656;9.666;2024-01-25T05:48:55;0.90;99.90
21580;DHT22;10951;59.656;9.666;2024-01-25T05:51:22;0.90;99.90
21580;DHT22;10951;59.656;9.666;2024-01-25T05:53:49;1.00;99.90
21580;DHT22;10951;59.656;9.666;2024-01-25T05:56:16;1.00;99.90
21580;DHT22;10951;59.656;9.666;2024-01-25T05:58:44;0.90;99.90
21580;DHT22;10951;59.656;9.666;2024-01-25T06:01:11;0.90;99.90
21580;DHT22;10951;59.656;9.666;2024-01-25T06:03:38;0.70;99.90
21580;DHT22;10951;59.656;9.666;2024-01-25T06:06:05;0.60;99.90
21580;DHT22;10951;59.656;9.666;2024-01-25T06:08:35;0.60;99.90
21580;DHT22;10951;59.656;9.666;2024-01-25T06:11:02;0.60;99.90
21580;DHT22;10951;59.656;9.666;2024-01-25T06:13:29;0.70;99.90
21580;DHT22;10951;59.656;9.666;2024-01-25T06:15:58;0.70;99.90
21580;DHT22;10951;59.656;9.666;2024-01-25T06:18:26;0.60;99.90
21580;DHT22;10951;59.656;9.666;2024-01-25T06:20:53;0.60;99.90
21580;DHT22;10951;59.656;9.666;2024-01-25T06:23:20;0.60;99.90
21580;DHT22;10951;59.656;9.666;2024-01-25T06:25:47;0.60;99.90
21580;DHT22;10951;59.656;9.666;2024-01-25T06:28:14;0.60;99.90
21580;DHT22;10951;59.656;9.666;2024-01-25T06:30:41;0.50;99.90
21580;DHT22;10951;59.656;9.666;2024-01-25T06:33:08;0.60;99.70
21580;DHT22;10951;59.656;9.666;2024-01-25T06:35:35;0.70;99.50
21580;DHT22;10951;59.656;9.666;2024-01-25T06:38:02;0.90;99.00
21580;DHT22;10951;59.656;9.666;2024-01-25T06:40:29;1.00;99.30
21580;DHT22;10951;59.656;9.666;2024-01-25T06:42:56;1.00;99.10
21580;DHT22;10951;59.656;9.666;2024-01-25T06:45:23;1.00;99.00
21580;DHT22;10951;59.656;9.666;2024-01-25T06:47:50;1.00;98.40
21580;DHT22;10951;59.656;9.666;2024-01-25T06:50:17;1.00;98.30
21580;DHT22;10951;59.656;9.666;2024-01-25T06:52:44;1.00;97.80
21580;DHT22;10951;59.656;9.666;2024-01-25T06:55:11;0.90;97.90
21580;DHT22;10951;59.656;9.666;2024-01-25T06:57:38;0.80;98.40
21580;DHT22;10951;59.656;9.666;2024-01-25T07:00:06;0.60;99.20
21580;DHT22;10951;59.656;9.666;2024-01-25T07:02:35;0.50;99.90
21580;DHT22;10951;59.656;9.666;2024-01-25T07:05:02;0.40;99.90
21580;DHT22;10951;59.656;9.666;2024-01-25T07:07:30;0.30;99.90
21580;DHT22;10951;59.656;9.666;2024-01-25T07:09:59;0.30;99.90
21580;DHT22;10951;59.656;9.666;2024-01-25T07:12:26;0.30;99.90
21580;DHT22;10951;59.656;9.666;2024-01-25T07:14:54;0.20;99.90
21580;DHT22;10951;59.656;9.666;2024-01-25T07:17:20;0.20;99.90
21580;DHT22;10951;59.656;9.666;2024-01-25T07:19:47;0.20;99.90
21580;DHT22;10951;59.656;9.666;2024-01-25T07:22:14;0.20;99.90
21580;DHT22;10951;59.656;9.666;2024-01-25T07:24:44;0.30;99.90
21580;DHT22;10951;59.656;9.666;2024-01-25T07:27:11;0.20;99.90
21580;DHT22;10951;59.656;9.666;2024-01-25T07:29:38;0.30;99.90
21580;DHT22;10951;59.656;9.666;2024-01-25T07:32:05;0.30;99.40
21580;DHT22;10951;59.656;9.666;2024-01-25T07:34:32;0.30;99.60
21580;DHT22;10951;59.656;9.666;2024-01-25T07:36:59;0.20;99.90
21580;DHT22;10951;59.656;9.666;2024-01-25T07:39:26;0.10;99.90
21580;DHT22;10951;59.656;9.666;2024-01-25T07:41:53;0.10;99.60
21580;DHT22;10951;59.656;9.666;2024-01-25T07:44:21;0.20;99.30
21580;DHT22;10951;59.656;9.666;2024-01-25T07:46:48;0.20;99.30
21580;DHT22;10951;59.656;9.666;2024-01-25T07:49:15;0.20;99.30
21580;DHT22;10951;59.656;9.666;2024-01-25T07:51:42;0.10;99.60
21580;DHT22;10951;59.656;9.666;2024-01-25T07:54:10;0.10;99.80
21580;DHT22;10951;59.656;9.666;2024-01-25T07:56:37;0.10;99.90
21580;DHT22;10951;59.656;9.666;2024-01-25T07:59:04;0.10;99.90
21580;DHT22;10951;59.656;9.666;2024-01-25T08:01:31;0.10;99.80
21580;DHT22;10951;59.656;9.666;2024-01-25T08:03:58;0.00;99.90
21580;DHT22;10951;59.656;9.666;2024-01-25T08:06:26;0.00;99.90
21580;DHT22;10951;59.656;9.666;2024-01-25T08:08:54;0.00;99.90
21580;DHT22;10951;59.656;9.666;2024-01-25T08:11:21;0.10;99.90
21580;DHT22;10951;59.656;9.666;2024-01-25T08:13:48;0.10;99.90
21580;DHT22;10951;59.656;9.666;2024-01-25T08:16:17;0.10;99.90
21580;DHT22;10951;59.656;9.666;2024-01-25T08:18:48;0.10;99.90
21580;DHT22;10951;59.656;9.666;2024-01-25T08:21:16;0.00;99.90
21580;DHT22;10951;59.656;9.666;2024-01-25T08:23:43;0.10;99.90
21580;DHT22;10951;59.656;9.666;2024-01-25T08:26:10;0.00;99.90
21580;DHT22;10951;59.656;9.666;2024-01-25T08:28:42;-0.10;99.90
21580;DHT22;10951;59.656;9.666;2024-01-25T08:31:13;-0.10;99.90
21580;DHT22;10951;59.656;9.666;2024-01-25T08:33:40;-0.10;99.90
21580;DHT22;10951;59.656;9.666;2024-01-25T08:36:18;-0.10;99.90
21580;DHT22;10951;59.656;9.666;2024-01-25T08:38:45;-0.10;99.90
21580;DHT22;10951;59.656;9.666;2024-01-25T08:41:12;-0.10;99.90
21580;DHT22;10951;59.656;9.666;2024-01-25T08:43:42;0.00;99.90
21580;DHT22;10951;59.656;9.666;2024-01-25T08:46:09;0.00;99.90
21580;DHT22;10951;59.656;9.666;2024-01-25T08:48:36;0.20;99.60
21580;DHT22;10951;59.656;9.666;2024-01-25T08:51:03;0.30;98.90
21580;DHT22;10951;59.656;9.666;2024-01-25T08:53:30;0.40;98.70
21580;DHT22;10951;59.656;9.666;2024-01-25T08:55:57;0.40;98.60
21580;DHT22;10951;59.656;9.666;2024-01-25T08:58:24;0.40;98.40
21580;DHT22;10951;59.656;9.666;2024-01-25T09:00:51;0.50;98.50
21580;DHT22;10951;59.656;9.666;2024-01-25T09:03:18;0.60;98.40
21580;DHT22;10951;59.656;9.666;2024-01-25T09:05:46;0.70;98.30
21580;DHT22;10951;59.656;9.666;2024-01-25T09:08:14;0.80;98.10
21580;DHT22;10951;59.656;9.666;2024-01-25T09:10:42;0.80;98.00
21580;DHT22;10951;59.656;9.666;2024-01-25T09:13:09;0.80;98.20
21580;DHT22;10951;59.656;9.666;2024-01-25T09:15:36;0.70;98.10
21580;DHT22;10951;59.656;9.666;2024-01-25T09:18:03;0.80;98.00
21580;DHT22;10951;59.656;9.666;2024-01-25T09:20:31;0.90;97.50
21580;DHT22;10951;59.656;9.666;2024-01-25T09:22:58;1.00;97.20
21580;DHT22;10951;59.656;9.666;2024-01-25T09:25:25;1.00;97.50
21580;DHT22;10951;59.656;9.666;2024-01-25T09:27:52;1.00;97.60
21580;DHT22;10951;59.656;9.666;2024-01-25T09:30:20;1.00;97.70
21580;DHT22;10951;59.656;9.666;2024-01-25T09:32:48;1.00;97.50
21580;DHT22;10951;59.656;9.666;2024-01-25T09:35:15;1.00;97.90
21580;DHT22;10951;59.656;9.666;2024-01-25T09:37:42;1.10;97.30
21580;DHT22;10951;59.656;9.666;2024-01-25T09:40:10;1.10;97.00
21580;DHT22;10951;59.656;9.666;2024-01-25T09:42:38;1.10;97.00
21580;DHT22;10951;59.656;9.666;2024-01-25T09:45:06;1.10;97.10
21580;DHT22;10951;59.656;9.666;2024-01-25T09:47:35;1.10;97.70
21580;DHT22;10951;59.656;9.666;2024-01-25T09:50:03;1.20;98.00
21580;DHT22;10951;59.656;9.666;2024-01-25T09:52:33;1.20;97.00
21580;DHT22;10951;59.656;9.666;2024-01-25T09:55:01;1.20;96.90
21580;DHT22;10951;59.656;9.666;2024-01-25T09:57:29;1.30;97.10
21580;DHT22;10951;59.656;9.666;2024-01-25T09:59:57;1.40;96.10
21580;DHT22;10951;59.656;9.666;2024-01-25T10:02:24;1.40;96.00
21580;DHT22;10951;59.656;9.666;2024-01-25T10:04:51;1.50;96.30
21580;DHT22;10951;59.656;9.666;2024-01-25T10:07:41;1.50;96.70
21580;DHT22;10951;59.656;9.666;2024-01-25T10:10:09;1.60;96.50
21580;DHT22;10951;59.656;9.666;2024-01-25T10:12:38;1.80;95.40
21580;DHT22;10951;59.656;9.666;2024-01-25T10:15:07;1.90;94.20
21580;DHT22;10951;59.656;9.666;2024-01-25T10:17:34;2.10;93.20
21580;DHT22;10951;59.656;9.666;2024-01-25T10:20:21;2.20;92.30
21580;DHT22;10951;59.656;9.666;2024-01-25T10:22:51;2.30;92.50
21580;DHT22;10951;59.656;9.666;2024-01-25T10:25:22;2.40;93.20
21580;DHT22;10951;59.656;9.666;2024-01-25T10:27:49;2.50;94.10
21580;DHT22;10951;59.656;9.666;2024-01-25T10:30:16;2.50;93.40
21580;DHT22;10951;59.656;9.666;2024-01-25T10:32:45;2.40;93.30
21580;DHT22;10951;59.656;9.666;2024-01-25T10:35:14;2.30;93.80
21580;DHT22;10951;59.656;9.666;2024-01-25T10:37:45;2.30;93.90
21580;DHT22;10951;59.656;9.666;2024-01-25T10:40:13;2.20;94.10
21580;DHT22;10951;59.656;9.666;2024-01-25T10:42:41;2.20;93.90
21580;DHT22;10951;59.656;9.666;2024-01-25T10:45:09;2.20;93.90
21580;DHT22;10951;59.656;9.666;2024-01-25T10:47:37;2.20;93.80
21580;DHT22;10951;59.656;9.666;2024-01-25T10:50:04;2.20;94.10
21580;DHT22;10951;59.656;9.666;2024-01-25T10:52:37;2.20;94.70
21580;DHT22;10951;59.656;9.666;2024-01-25T10:55:04;2.20;95.20
21580;DHT22;10951;59.656;9.666;2024-01-25T10:57:45;2.30;95.50
21580;DHT22;10951;59.656;9.666;2024-01-25T11:00:15;2.40;95.60
21580;DHT22;10951;59.656;9.666;2024-01-25T11:02:43;2.40;95.50
21580;DHT22;10951;59.656;9.666;2024-01-25T11:05:11;2.50;95.00
21580;DHT22;10951;59.656;9.666;2024-01-25T11:07:49;2.60;94.60
21580;DHT22;10951;59.656;9.666;2024-01-25T11:10:17;2.60;93.90
21580;DHT22;10951;59.656;9.666;2024-01-25T11:13:03;2.70;94.10
21580;DHT22;10951;59.656;9.666;2024-01-25T11:15:36;2.80;94.30
21580;DHT22;10951;59.656;9.666;2024-01-25T11:18:04;2.80;92.60
21580;DHT22;10951;59.656;9.666;2024-01-25T11:20:36;2.90;92.00
21580;DHT22;10951;59.656;9.666;2024-01-25T11:23:06;3.10;91.90
21580;DHT22;10951;59.656;9.666;2024-01-25T11:25:36;3.20;91.00
21580;DHT22;10951;59.656;9.666;2024-01-25T11:28:05;3.30;90.50
21580;DHT22;10951;59.656;9.666;2024-01-25T11:30:34;3.50;90.00
21580;DHT22;10951;59.656;9.666;2024-01-25T11:33:04;3.60;90.40
21580;DHT22;10951;59.656;9.666;2024-01-25T11:35:33;3.60;91.10
21580;DHT22;10951;59.656;9.666;2024-01-25T11:38:00;3.60;91.10
21580;DHT22;10951;59.656;9.666;2024-01-25T11:40:27;3.60;91.80
21580;DHT22;10951;59.656;9.666;2024-01-25T11:42:58;3.70;90.90
21580;DHT22;10951;59.656;9.666;2024-01-25T11:45:25;3.60;90.80
21580;DHT22;10951;59.656;9.666;2024-01-25T11:47:52;3.60;91.00
21580;DHT22;10951;59.656;9.666;2024-01-25T11:50:19;3.60;91.10
21580;DHT22;10951;59.656;9.666;2024-01-25T11:52:48;3.60;90.80
21580;DHT22;10951;59.656;9.666;2024-01-25T11:55:15;3.70;90.60
21580;DHT22;10951;59.656;9.666;2024-01-25T11:57:42;3.70;90.70
21580;DHT22;10951;59.656;9.666;2024-01-25T12:00:13;3.80;90.20
21580;DHT22;10951;59.656;9.666;2024-01-25T12:02:41;3.90;88.70
21580;DHT22;10951;59.656;9.666;2024-01-25T12:05:09;4.00;88.00
21580;DHT22;10951;59.656;9.666;2024-01-25T12:07:39;4.00;87.20
21580;DHT22;10951;59.656;9.666;2024-01-25T12:10:08;4.00;85.70
21580;DHT22;10951;59.656;9.666;2024-01-25T12:12:37;4.10;86.00
21580;DHT22;10951;59.656;9.666;2024-01-25T12:15:05;4.10;87.20
21580;DHT22;10951;59.656;9.666;2024-01-25T12:17:34;4.10;88.40
21580;DHT22;10951;59.656;9.666;2024-01-25T12:20:07;4.10;87.30
21580;DHT22;10951;59.656;9.666;2024-01-25T12:22:38;4.10;87.20
21580;DHT22;10951;59.656;9.666;2024-01-25T12:25:07;4.20;85.50
21580;DHT22;10951;59.656;9.666;2024-01-25T12:27:36;4.30;84.00
21580;DHT22;10951;59.656;9.666;2024-01-25T12:30:07;4.40;84.80
21580;DHT22;10951;59.656;9.666;2024-01-25T12:32:38;4.30;85.60
21580;DHT22;10951;59.656;9.666;2024-01-25T12:35:05;4.40;84.40
21580;DHT22;10951;59.656;9.666;2024-01-25T12:37:33;4.40;83.30
21580;DHT22;10951;59.656;9.666;2024-01-25T12:40:00;4.40;84.20
21580;DHT22;10951;59.656;9.666;2024-01-25T12:42:28;4.40;85.50
21580;DHT22;10951;59.656;9.666;2024-01-25T12:44:55;4.40;88.40
21580;DHT22;10951;59.656;9.666;2024-01-25T12:47:22;4.30;85.90
21580;DHT22;10951;59.656;9.666;2024-01-25T12:49:49;4.30;84.80
21580;DHT22;10951;59.656;9.666;2024-01-25T12:52:17;4.20;85.70
21580;DHT22;10951;59.656;9.666;2024-01-25T12:54:44;4.20;85.60
21580;DHT22;10951;59.656;9.666;2024-01-25T12:57:11;4.10;87.80
21580;DHT22;10951;59.656;9.666;2024-01-25T12:59:38;4.10;86.60
21580;DHT22;10951;59.656;9.666;2024-01-25T13:02:07;4.00;89.00
21580;DHT22;10951;59.656;9.666;2024-01-25T13:04:35;4.00;87.40
21580;DHT22;10951;59.656;9.666;2024-01-25T13:07:02;4.00;87.30
21580;DHT22;10951;59.656;9.666;2024-01-25T13:09:29;3.90;86.80
21580;DHT22;10951;59.656;9.666;2024-01-25T13:12:00;3.90;86.80
21580;DHT22;10951;59.656;9.666;2024-01-25T13:14:27;3.80;87.60
21580;DHT22;10951;59.656;9.666;2024-01-25T13:16:54;3.90;86.90
21580;DHT22;10951;59.656;9.666;2024-01-25T13:19:21;3.90;86.60
21580;DHT22;10951;59.656;9.666;2024-01-25T13:21:50;3.70;87.80
21580;DHT22;10951;59.656;9.666;2024-01-25T13:24:19;3.60;89.50
21580;DHT22;10951;59.656;9.666;2024-01-25T13:26:46;3.50;90.30
21580;DHT22;10951;59.656;9.666;2024-01-25T13:29:13;3.40;89.70
21580;DHT22;10951;59.656;9.666;2024-01-25T13:31:40;3.50;89.20
21580;DHT22;10951;59.656;9.666;2024-01-25T13:34:07;3.50;87.90
21580;DHT22;10951;59.656;9.666;2024-01-25T13:36:34;3.50;87.00
21580;DHT22;10951;59.656;9.666;2024-01-25T13:39:01;3.50;86.90
21580;DHT22;10951;59.656;9.666;2024-01-25T13:41:30;3.60;87.10
21580;DHT22;10951;59.656;9.666;2024-01-25T13:43:57;3.60;90.10
21580;DHT22;10951;59.656;9.666;2024-01-25T13:46:24;3.70;90.60
21580;DHT22;10951;59.656;9.666;2024-01-25T13:48:52;3.70;91.30
21580;DHT22;10951;59.656;9.666;2024-01-25T13:51:19;3.80;91.30
21580;DHT22;10951;59.656;9.666;2024-01-25T13:53:46;3.70;91.30
21580;DHT22;10951;59.656;9.666;2024-01-25T13:56:15;3.80;91.60
21580;DHT22;10951;59.656;9.666;2024-01-25T13:58:43;3.80;91.60
21580;DHT22;10951;59.656;9.666;2024-01-25T14:01:10;3.80;91.50
21580;DHT22;10951;59.656;9.666;2024-01-25T14:03:38;3.80;91.80
21580;DHT22;10951;59.656;9.666;2024-01-25T14:06:06;3.80;91.50
21580;DHT22;10951;59.656;9.666;2024-01-25T14:08:36;3.90;91.30
21580;DHT22;10951;59.656;9.666;2024-01-25T14:11:04;3.80;91.30
21580;DHT22;10951;59.656;9.666;2024-01-25T14:13:33;3.90;91.10
21580;DHT22;10951;59.656;9.666;2024-01-25T14:16:00;3.90;90.90
21580;DHT22;10951;59.656;9.666;2024-01-25T14:18:28;4.00;90.50
21580;DHT22;10951;59.656;9.666;2024-01-25T14:20:57;4.00;90.60
21580;DHT22;10951;59.656;9.666;2024-01-25T14:23:24;3.90;90.20
21580;DHT22;10951;59.656;9.666;2024-01-25T14:25:51;3.80;90.70
21580;DHT22;10951;59.656;9.666;2024-01-25T14:28:18;3.80;90.40
21580;DHT22;10951;59.656;9.666;2024-01-25T14:30:46;3.70;91.40
21580;DHT22;10951;59.656;9.666;2024-01-25T14:33:14;3.60;91.90
21580;DHT22;10951;59.656;9.666;2024-01-25T14:35:41;3.50;92.10
21580;DHT22;10951;59.656;9.666;2024-01-25T14:38:08;3.40;92.40
21580;DHT22;10951;59.656;9.666;2024-01-25T14:40:35;3.20;92.50
21580;DHT22;10951;59.656;9.666;2024-01-25T14:43:22;3.10;92.70
21580;DHT22;10951;59.656;9.666;2024-01-25T14:45:49;3.00;92.80
21580;DHT22;10951;59.656;9.666;2024-01-25T14:48:17;3.00;93.00
21580;DHT22;10951;59.656;9.666;2024-01-25T14:50:44;2.90;93.20
21580;DHT22;10951;59.656;9.666;2024-01-25T14:53:11;2.80;93.40
21580;DHT22;10951;59.656;9.666;2024-01-25T14:55:39;2.70;93.60
21580;DHT22;10951;59.656;9.666;2024-01-25T14:58:06;2.60;93.70
21580;DHT22;10951;59.656;9.666;2024-01-25T15:00:35;2.60;94.30
21580;DHT22;10951;59.656;9.666;2024-01-25T15:03:02;2.50;94.40
21580;DHT22;10951;59.656;9.666;2024-01-25T15:05:30;2.40;94.60
21580;DHT22;10951;59.656;9.666;2024-01-25T15:07:57;2.20;94.80
21580;DHT22;10951;59.656;9.666;2024-01-25T15:10:25;2.10;95.00
21580;DHT22;10951;59.656;9.666;2024-01-25T15:12:52;2.00;95.10
21580;DHT22;10951;59.656;9.666;2024-01-25T15:15:21;1.90;95.20
21580;DHT22;10951;59.656;9.666;2024-01-25T15:17:48;1.80;95.20
21580;DHT22;10951;59.656;9.666;2024-01-25T15:20:15;1.70;95.30
21580;DHT22;10951;59.656;9.666;2024-01-25T15:22:42;1.60;95.70
21580;DHT22;10951;59.656;9.666;2024-01-25T15:25:09;1.50;95.70
21580;DHT22;10951;59.656;9.666;2024-01-25T15:27:36;1.50;95.90
21580;DHT22;10951;59.656;9.666;2024-01-25T15:30:03;1.40;96.40
21580;DHT22;10951;59.656;9.666;2024-01-25T15:32:32;1.30;96.70
21580;DHT22;10951;59.656;9.666;2024-01-25T15:34:59;1.30;96.90
21580;DHT22;10951;59.656;9.666;2024-01-25T15:37:26;1.10;96.90
21580;DHT22;10951;59.656;9.666;2024-01-25T15:39:53;1.10;97.00
21580;DHT22;10951;59.656;9.666;2024-01-25T15:42:20;1.00;97.10
21580;DHT22;10951;59.656;9.666;2024-01-25T15:44:48;0.90;97.30
21580;DHT22;10951;59.656;9.666;2024-01-25T15:47:15;0.80;97.60
21580;DHT22;10951;59.656;9.666;2024-01-25T15:49:41;0.70;97.70